Hawera, New Zealand
Current Conditions -  °F | °C
As of 10:00 PM on Thursday 23 Oct 2014 (Local Time) from NZWN Reporting Station
Broken Clouds Broken Clouds  
Wind Chill: 55°   Ceiling: 1900
Heat Index: 55°   Visibility: 6mi
Dew Point: 50°   Wind: 21mph
Humidity: 82%   Direction: 20°NNE
Pressure: 29.74"   Gusts: NA
Location:  39.59°S, 174.28°E
Report Text: NZWN 231000Z AUTO 02018KT 9999 BKN019/// 13/10 Q1007 NOSIG
Loading
Personal Weather Stations






























Interactive Weather Map
Tropical Storm Tracking
New forecast layout! Learn more

10-Day Weather Forecast

Advertisements
Track Severe Weather on mobile